Time;durP1;ratioP1;P1;durP2;ratioP2;P2;SDS_P1;SDS_P2;PMS_P1;PMS_P2;Temp;Humidity;BMP_temperature;BMP_pressure;BME280_temperature;BME280_humidity;BME280_pressure;Samples;Min_cycle;Max_cycle;Signal;HPM_P1;HPM_P2
2021/08/16 00:01:59;;;;;;;8.57;3.22;;;18.80;75.30;;;;;;5073994;28;20032;-38
2021/08/16 00:04:25;;;;;;;6.10;3.33;;;18.80;75.60;;;;;;5074308;28;20028;-38
2021/08/16 00:06:51;;;;;;;4.07;2.33;;;18.80;75.90;;;;;;5073603;28;20487;-37
2021/08/16 00:09:16;;;;;;;5.28;3.00;;;18.80;76.10;;;;;;5073842;28;20025;-37
2021/08/16 00:11:42;;;;;;;4.55;2.78;;;18.70;76.30;;;;;;5073824;28;20035;-37
2021/08/16 00:14:07;;;;;;;6.70;2.70;;;18.70;76.30;;;;;;5073852;28;20091;-38
2021/08/16 00:16:34;;;;;;;5.18;3.55;;;18.80;76.20;;;;;;5073781;28;20104;-37
2021/08/16 00:19:00;;;;;;;6.00;2.65;;;18.80;76.10;;;;;;5073612;28;20049;-38
2021/08/16 00:21:25;;;;;;;5.50;3.03;;;18.80;76.20;;;;;;5073064;28;20052;-38
2021/08/16 00:23:51;;;;;;;12.45;2.97;;;18.80;76.30;;;;;;5074150;28;20107;-36
2021/08/16 00:26:17;;;;;;;11.98;2.97;;;18.80;76.30;;;;;;5073263;28;20020;-37
2021/08/16 00:28:43;;;;;;;6.53;3.13;;;18.70;76.40;;;;;;5073325;28;20476;-36
2021/08/16 00:31:08;;;;;;;6.75;3.38;;;18.70;76.50;;;;;;5073294;28;20027;-38
2021/08/16 00:33:34;;;;;;;6.97;3.38;;;18.70;76.70;;;;;;5073347;28;20027;-38
2021/08/16 00:36:00;;;;;;;13.88;3.50;;;18.60;77.20;;;;;;5073287;28;20020;-38
2021/08/16 00:38:26;;;;;;;7.25;3.90;;;18.60;77.40;;;;;;5073720;28;20024;-39
2021/08/16 00:40:53;;;;;;;6.78;3.70;;;18.50;77.80;;;;;;5073479;28;20095;-37
2021/08/16 00:43:18;;;;;;;5.60;3.10;;;18.30;78.10;;;;;;5073144;28;20024;-38
2021/08/16 00:45:46;;;;;;;3.85;2.70;;;18.20;78.20;;;;;;5073175;28;20028;-36
2021/08/16 00:48:11;;;;;;;10.30;3.88;;;18.20;77.60;;;;;;5073063;28;20021;-37
2021/08/16 00:50:37;;;;;;;4.72;3.00;;;18.10;77.60;;;;;;5071821;28;20028;-37
2021/08/16 00:53:04;;;;;;;6.50;3.00;;;18.20;77.40;;;;;;5073763;28;20020;-44
2021/08/16 00:55:30;;;;;;;8.85;4.20;;;18.00;77.30;;;;;;5073443;28;20024;-38
2021/08/16 00:57:58;;;;;;;12.35;2.97;;;17.90;77.40;;;;;;5073127;28;20081;-38
2021/08/16 01:00:24;;;;;;;9.05;3.13;;;17.80;77.50;;;;;;5072705;28;20043;-38
2021/08/16 01:02:50;;;;;;;9.18;4.03;;;17.80;77.30;;;;;;5073022;28;20021;-38
2021/08/16 01:05:16;;;;;;;6.32;2.83;;;17.70;77.30;;;;;;5072977;28;20020;-37
2021/08/16 01:07:43;;;;;;;9.70;3.20;;;17.70;77.30;;;;;;5072876;28;20047;-37
2021/08/16 01:10:09;;;;;;;6.20;3.13;;;17.60;77.20;;;;;;5072549;28;20016;-37
2021/08/16 01:12:36;;;;;;;9.25;2.92;;;17.50;77.10;;;;;;5072702;28;20437;-38
2021/08/16 01:15:05;;;;;;;6.93;2.58;;;17.50;77.00;;;;;;5072523;28;20464;-38
2021/08/16 01:17:31;;;;;;;6.13;2.95;;;17.50;77.00;;;;;;5072553;28;20130;-37
2021/08/16 01:19:57;;;;;;;8.30;2.53;;;17.40;77.00;;;;;;5072502;28;20024;-37
2021/08/16 01:22:28;;;;;;;11.25;3.05;;;17.30;76.70;;;;;;5072293;28;20064;-38
2021/08/16 01:24:54;;;;;;;5.65;2.17;;;17.30;76.60;;;;;;5073014;28;20020;-38
2021/08/16 01:27:20;;;;;;;9.68;3.10;;;17.30;76.50;;;;;;5072457;28;20056;-37
2021/08/16 01:29:46;;;;;;;6.35;2.65;;;17.30;76.40;;;;;;5072764;28;20032;-37
2021/08/16 01:32:11;;;;;;;9.13;2.80;;;17.30;76.40;;;;;;5072809;28;20036;-37
2021/08/16 01:34:37;;;;;;;7.18;2.67;;;17.20;76.40;;;;;;5072554;28;20028;-37
2021/08/16 01:37:03;;;;;;;7.40;2.60;;;17.20;76.50;;;;;;5072484;28;20404;-37
2021/08/16 01:39:29;;;;;;;5.00;3.08;;;17.10;76.60;;;;;;5072498;28;20028;-37
2021/08/16 01:41:55;;;;;;;15.65;5.45;;;17.00;76.40;;;;;;5072480;28;20032;-37
2021/08/16 01:44:22;;;;;;;8.02;3.60;;;16.90;76.60;;;;;;5072603;28;20028;-37
2021/08/16 01:46:49;;;;;;;16.42;3.92;;;16.90;76.60;;;;;;5072766;28;20472;-37
2021/08/16 01:49:15;;;;;;;12.57;4.07;;;16.80;76.30;;;;;;5072519;28;20147;-36
2021/08/16 01:51:41;;;;;;;13.77;3.28;;;16.80;76.20;;;;;;5072959;28;20098;-37
2021/08/16 01:54:08;;;;;;;12.98;3.42;;;16.90;75.80;;;;;;5072512;28;20041;-38
2021/08/16 01:56:34;;;;;;;8.05;3.10;;;17.00;75.20;;;;;;5072682;28;20028;-37
2021/08/16 01:59:00;;;;;;;12.25;4.10;;;16.90;75.00;;;;;;5072516;28;20043;-36
2021/08/16 02:01:26;;;;;;;9.77;3.75;;;17.00;74.70;;;;;;5072945;28;20024;-36
2021/08/16 02:03:52;;;;;;;11.63;3.60;;;17.00;74.60;;;;;;5071117;28;20132;-37
2021/08/16 02:06:19;;;;;;;13.07;3.25;;;17.00;74.10;;;;;;5072571;28;20029;-37
2021/08/16 02:08:44;;;;;;;10.90;2.95;;;17.00;74.20;;;;;;5072294;28;20104;-37
2021/08/16 02:11:10;;;;;;;8.98;3.22;;;16.90;74.00;;;;;;5072353;28;20468;-37
2021/08/16 02:13:36;;;;;;;7.60;2.65;;;17.00;73.80;;;;;;5072297;28;20025;-36
2021/08/16 02:16:02;;;;;;;9.68;2.47;;;17.00;73.70;;;;;;5072295;28;20020;-36
2021/08/16 02:18:28;;;;;;;8.18;3.38;;;17.10;73.50;;;;;;5072190;28;20075;-37
2021/08/16 02:20:54;;;;;;;9.23;3.83;;;17.10;73.50;;;;;;5071981;28;20021;-37
2021/08/16 02:23:19;;;;;;;9.27;3.83;;;17.20;73.40;;;;;;5070900;28;20473;-37
2021/08/16 02:25:45;;;;;;;13.95;4.30;;;17.10;73.20;;;;;;5072080;28;20028;-36
2021/08/16 02:28:15;;;;;;;10.88;3.47;;;17.00;73.50;;;;;;5072195;28;20024;-36
2021/08/16 02:30:40;;;;;;;13.27;4.05;;;17.10;73.40;;;;;;5075648;28;20024;-37
2021/08/16 02:33:06;;;;;;;13.00;4.63;;;17.20;73.20;;;;;;5076065;28;20421;-37
2021/08/16 02:35:32;;;;;;;13.45;4.47;;;16.80;73.90;;;;;;5075581;28;20036;-36
2021/08/16 02:37:58;;;;;;;13.07;4.93;;;16.80;74.10;;;;;;5075804;28;20484;-37
2021/08/16 02:40:23;;;;;;;12.60;4.18;;;16.90;73.90;;;;;;5074228;28;20385;-37
2021/08/16 02:42:49;;;;;;;20.10;4.45;;;16.90;73.80;;;;;;5075766;28;20029;-38
2021/08/16 02:45:15;;;;;;;11.88;4.47;;;17.00;73.80;;;;;;5075749;28;20023;-38
2021/08/16 02:47:40;;;;;;;10.25;3.65;;;16.90;73.90;;;;;;5075935;28;20059;-37
2021/08/16 02:50:07;;;;;;;13.15;4.97;;;16.80;74.20;;;;;;5075655;28;20025;-37
2021/08/16 02:52:32;;;;;;;17.08;3.55;;;17.00;74.00;;;;;;5075346;28;20423;-36
2021/08/16 02:54:59;;;;;;;23.35;5.18;;;16.80;74.40;;;;;;5075293;28;20025;-37
2021/08/16 02:57:25;;;;;;;13.57;4.65;;;16.80;74.40;;;;;;5075652;28;20046;-38
2021/08/16 02:59:51;;;;;;;15.50;4.35;;;16.90;74.20;;;;;;5075578;28;20112;-38
2021/08/16 03:02:16;;;;;;;17.38;4.93;;;17.00;73.90;;;;;;5075146;28;20043;-37
2021/08/16 03:04:42;;;;;;;9.32;3.88;;;17.00;73.90;;;;;;5075348;28;20029;-37
2021/08/16 03:07:09;;;;;;;12.35;3.75;;;16.80;74.40;;;;;;5075365;28;20100;-37
2021/08/16 03:09:35;;;;;;;10.88;4.93;;;16.80;74.60;;;;;;5075110;28;20146;-37
2021/08/16 03:12:00;;;;;;;10.80;4.97;;;16.80;74.70;;;;;;5075301;28;20486;-37
2021/08/16 03:14:26;;;;;;;9.85;4.05;;;16.80;74.70;;;;;;5075124;28;20028;-37
2021/08/16 03:16:51;;;;;;;10.45;4.95;;;16.80;74.90;;;;;;5075121;28;20107;-37
2021/08/16 03:19:17;;;;;;;17.45;4.80;;;16.90;74.60;;;;;;5074812;28;20162;-36
2021/08/16 03:21:43;;;;;;;10.15;4.65;;;16.90;74.70;;;;;;5074678;28;20549;-37
2021/08/16 03:24:10;;;;;;;11.65;4.75;;;16.90;74.90;;;;;;5075068;28;20514;-37
2021/08/16 03:26:36;;;;;;;19.05;4.25;;;16.90;74.90;;;;;;5074802;28;20021;-37
2021/08/16 03:29:02;;;;;;;14.05;5.10;;;16.80;75.20;;;;;;5075162;28;20445;-37
2021/08/16 03:31:27;;;;;;;20.85;4.95;;;16.90;75.10;;;;;;5073378;28;20021;-38
2021/08/16 03:33:53;;;;;;;11.55;5.70;;;16.80;75.20;;;;;;5073367;28;20036;-37
2021/08/16 03:36:19;;;;;;;10.63;4.75;;;16.90;75.30;;;;;;5074826;28;20024;-38
2021/08/16 03:38:45;;;;;;;10.35;5.00;;;16.90;75.40;;;;;;5074526;28;20431;-38
2021/08/16 03:41:10;;;;;;;13.80;4.97;;;16.70;76.00;;;;;;5074218;28;20064;-36
2021/08/16 03:43:36;;;;;;;15.30;6.57;;;16.80;75.80;;;;;;5074350;28;20032;-39
2021/08/16 03:46:01;;;;;;;14.35;5.88;;;16.80;75.90;;;;;;5074578;28;20384;-37
2021/08/16 03:48:27;;;;;;;19.33;5.63;;;16.80;76.00;;;;;;5074613;28;20035;-37
2021/08/16 03:50:53;;;;;;;17.05;6.20;;;16.80;76.20;;;;;;5074244;28;20021;-37
2021/08/16 03:53:18;;;;;;;16.73;5.28;;;16.80;76.40;;;;;;5074201;28;20051;-38
2021/08/16 03:55:44;;;;;;;18.60;7.20;;;16.80;76.30;;;;;;5074485;28;20065;-38
2021/08/16 03:58:10;;;;;;;9.98;4.50;;;16.80;76.30;;;;;;5074197;28;20469;-38
2021/08/16 04:00:35;;;;;;;17.65;5.00;;;16.80;76.30;;;;;;5074196;28;20031;-38
2021/08/16 04:03:01;;;;;;;19.90;5.38;;;16.80;76.10;;;;;;5074269;28;20069;-38
2021/08/16 04:05:27;;;;;;;18.48;6.43;;;16.80;76.50;;;;;;5073945;28;20017;-38
2021/08/16 04:07:53;;;;;;;11.60;5.22;;;16.80;76.70;;;;;;5074088;28;20094;-38
2021/08/16 04:10:19;;;;;;;14.13;5.60;;;16.70;76.90;;;;;;5072718;28;20046;-38
2021/08/16 04:12:46;;;;;;;9.57;5.00;;;16.80;76.80;;;;;;5073734;28;20028;-38
2021/08/16 04:15:14;;;;;;;11.23;4.43;;;16.70;77.00;;;;;;5073717;28;20039;-36
2021/08/16 04:17:40;;;;;;;18.50;7.40;;;16.70;77.10;;;;;;5073878;28;20029;-37
2021/08/16 04:20:07;;;;;;;16.90;5.70;;;16.70;77.20;;;;;;5073559;28;20503;-36
2021/08/16 04:22:33;;;;;;;15.55;6.90;;;16.60;77.50;;;;;;5073407;28;20037;-37
2021/08/16 04:24:59;;;;;;;14.05;6.28;;;16.80;77.20;;;;;;5073486;28;20107;-37
2021/08/16 04:27:25;;;;;;;19.23;7.80;;;16.70;77.10;;;;;;5073291;28;20099;-36
2021/08/16 04:29:51;;;;;;;13.27;5.97;;;16.60;77.40;;;;;;5072848;28;20434;-36
2021/08/16 04:32:16;;;;;;;18.27;7.65;;;16.70;77.50;;;;;;5073780;28;20056;-36
2021/08/16 04:34:42;;;;;;;17.80;7.82;;;16.60;77.80;;;;;;5073635;28;20029;-36
2021/08/16 04:37:07;;;;;;;21.90;7.35;;;16.60;77.90;;;;;;5073360;28;20491;-37
2021/08/16 04:39:33;;;;;;;11.57;6.32;;;16.50;78.00;;;;;;5073406;28;20025;-36
2021/08/16 04:41:59;;;;;;;11.82;6.72;;;16.70;78.10;;;;;;5074057;28;20035;-37
2021/08/16 04:44:25;;;;;;;13.77;7.65;;;16.60;77.90;;;;;;5073340;28;20023;-36
2021/08/16 04:46:50;;;;;;;16.70;7.38;;;16.80;77.90;;;;;;5072046;28;20420;-36
2021/08/16 04:49:16;;;;;;;24.75;6.95;;;16.70;78.00;;;;;;5073198;28;20414;-37
2021/08/16 04:51:42;;;;;;;20.02;7.70;;;16.70;78.00;;;;;;5073285;28;20028;-36
2021/08/16 04:54:07;;;;;;;16.05;7.38;;;16.60;78.20;;;;;;5073176;28;20495;-38
2021/08/16 04:56:33;;;;;;;17.67;8.95;;;16.50;78.70;;;;;;5073374;28;20380;-36
2021/08/16 04:59:00;;;;;;;22.83;8.90;;;16.50;78.80;;;;;;5073179;28;20423;-37
2021/08/16 05:01:26;;;;;;;22.67;9.13;;;16.50;78.50;;;;;;5073201;28;20029;-37
2021/08/16 05:03:52;;;;;;;18.15;7.78;;;16.60;78.50;;;;;;5073284;28;20028;-37
2021/08/16 05:06:17;;;;;;;16.08;7.85;;;16.60;78.70;;;;;;5073340;28;20069;-37
2021/08/16 05:08:43;;;;;;;14.43;8.05;;;16.60;78.60;;;;;;5072851;28;20028;-38
2021/08/16 05:11:09;;;;;;;22.48;8.95;;;16.70;78.60;;;;;;5072891;28;20020;-37
2021/08/16 05:13:35;;;;;;;16.15;8.20;;;16.70;78.50;;;;;;5072717;28;20024;-37
2021/08/16 05:16:01;;;;;;;15.48;8.38;;;16.60;79.00;;;;;;5072385;28;20372;-37
2021/08/16 05:18:27;;;;;;;18.25;8.27;;;16.70;78.60;;;;;;5072313;28;20024;-37
2021/08/16 05:20:55;;;;;;;20.27;9.32;;;16.80;78.40;;;;;;5071965;28;20109;-36
2021/08/16 05:23:21;;;;;;;16.65;8.15;;;16.70;78.70;;;;;;5072436;28;20033;-37
2021/08/16 05:25:47;;;;;;;15.75;8.40;;;16.80;78.40;;;;;;5072155;28;20032;-37
2021/08/16 05:28:14;;;;;;;24.67;10.15;;;16.80;78.50;;;;;;5072418;28;20424;-37
2021/08/16 05:30:40;;;;;;;21.95;8.48;;;16.80;78.50;;;;;;5072387;28;20128;-37
2021/08/16 05:33:05;;;;;;;18.63;8.18;;;16.80;78.50;;;;;;5072057;28;20032;-37
2021/08/16 05:35:31;;;;;;;20.52;8.23;;;17.00;78.10;;;;;;5072332;28;20032;-38
2021/08/16 05:37:57;;;;;;;22.70;8.43;;;16.80;78.80;;;;;;5072213;28;20024;-37
2021/08/16 05:40:23;;;;;;;18.13;8.55;;;16.70;79.20;;;;;;5072041;28;20078;-37
2021/08/16 05:42:49;;;;;;;15.48;8.15;;;16.70;79.50;;;;;;5072288;28;20035;-38
2021/08/16 05:45:15;;;;;;;18.17;7.85;;;16.80;79.40;;;;;;5072680;28;20135;-37
2021/08/16 05:47:41;;;;;;;19.42;7.72;;;16.80;78.90;;;;;;5072528;28;20025;-38
2021/08/16 05:50:07;;;;;;;20.05;7.32;;;16.80;79.10;;;;;;5072703;28;20166;-37
2021/08/16 05:52:34;;;;;;;20.33;7.80;;;16.80;79.30;;;;;;5072202;28;20449;-37
2021/08/16 05:55:00;;;;;;;19.02;7.50;;;16.80;79.00;;;;;;5072582;28;20024;-37
2021/08/16 05:57:27;;;;;;;18.88;8.95;;;17.00;78.90;;;;;;5071745;28;20044;-37
2021/08/16 05:59:53;;;;;;;15.05;7.22;;;16.90;79.20;;;;;;5071950;28;20538;-37
2021/08/16 06:02:18;;;;;;;20.40;7.43;;;16.80;79.50;;;;;;5071776;28;20025;-37
2021/08/16 06:04:44;;;;;;;17.15;7.50;;;16.80;79.50;;;;;;5073487;28;20032;-37
2021/08/16 06:07:09;;;;;;;17.83;7.18;;;16.80;79.70;;;;;;5074760;28;20096;-38
2021/08/16 06:09:35;;;;;;;18.35;7.22;;;16.80;79.50;;;;;;5076004;28;20031;-37
2021/08/16 06:12:01;;;;;;;15.38;7.10;;;16.80;79.60;;;;;;5079578;28;20055;-37
2021/08/16 06:14:27;;;;;;;14.02;7.00;;;16.90;79.30;;;;;;5076207;28;20032;-37
2021/08/16 06:16:52;;;;;;;17.08;6.57;;;16.90;79.30;;;;;;5075383;28;20016;-37
2021/08/16 06:19:18;;;;;;;16.02;6.20;;;17.00;79.30;;;;;;5075269;28;20032;-37
2021/08/16 06:21:43;;;;;;;22.55;8.63;;;17.10;79.10;;;;;;5076002;28;20044;-37
2021/08/16 06:24:11;;;;;;;13.10;6.18;;;17.20;78.60;;;;;;5075533;28;20380;-37
2021/08/16 06:26:37;;;;;;;23.08;9.18;;;17.00;79.50;;;;;;5075689;28;20017;-37
2021/08/16 06:29:03;;;;;;;19.02;7.32;;;17.00;79.60;;;;;;5075779;28;20025;-37
2021/08/16 06:31:29;;;;;;;17.67;8.43;;;17.00;79.50;;;;;;5075439;28;20040;-37
2021/08/16 06:33:55;;;;;;;16.35;7.90;;;17.00;79.50;;;;;;5078310;28;20037;-37
2021/08/16 06:36:21;;;;;;;15.00;7.03;;;16.90;79.90;;;;;;5075767;28;20060;-37
2021/08/16 06:38:48;;;;;;;21.63;7.57;;;16.90;80.00;;;;;;5075379;28;20078;-37
2021/08/16 06:41:18;;;;;;;17.35;6.85;;;17.10;79.60;;;;;;5075666;28;20035;-38
2021/08/16 06:43:46;;;;;;;16.17;7.60;;;17.00;79.90;;;;;;5076057;28;20023;-38
2021/08/16 06:46:14;;;;;;;18.88;7.28;;;17.20;79.30;;;;;;5076508;28;20053;-42
2021/08/16 06:48:40;;;;;;;14.85;6.85;;;17.20;79.40;;;;;;5075562;28;20100;-37
2021/08/16 06:51:06;;;;;;;16.48;7.88;;;17.20;79.50;;;;;;5075277;28;20100;-38
2021/08/16 06:53:31;;;;;;;14.15;6.45;;;17.30;79.30;;;;;;5075504;28;20025;-37
2021/08/16 06:55:57;;;;;;;15.65;6.85;;;17.30;79.10;;;;;;5075244;28;20120;-37
2021/08/16 06:58:23;;;;;;;18.27;7.63;;;17.30;78.80;;;;;;5075184;28;20408;-38
2021/08/16 07:00:49;;;;;;;18.95;7.13;;;17.50;78.50;;;;;;5075227;28;20032;-38
2021/08/16 07:03:15;;;;;;;17.35;7.07;;;17.60;77.80;;;;;;5075437;28;20028;-38
2021/08/16 07:05:42;;;;;;;14.15;6.15;;;17.70;77.70;;;;;;5075560;28;20397;-37
2021/08/16 07:08:08;;;;;;;15.00;6.35;;;17.70;78.10;;;;;;5074723;28;20024;-38
2021/08/16 07:10:34;;;;;;;27.75;6.93;;;17.70;77.60;;;;;;5074640;28;20021;-38
2021/08/16 07:13:00;;;;;;;11.68;6.30;;;17.70;77.70;;;;;;5074747;28;20025;-38
2021/08/16 07:15:26;;;;;;;10.85;5.32;;;17.70;77.40;;;;;;5072959;28;20369;-37
2021/08/16 07:17:52;;;;;;;15.20;6.28;;;17.90;76.70;;;;;;5075532;28;20054;-37
2021/08/16 07:20:17;;;;;;;15.60;4.65;;;17.80;77.10;;;;;;5077879;28;20036;-39
2021/08/16 07:22:43;;;;;;;21.48;6.32;;;17.80;77.10;;;;;;5074518;28;20118;-39
2021/08/16 07:25:09;;;;;;;16.08;6.20;;;17.80;76.80;;;;;;5074659;28;20033;-38
2021/08/16 07:27:35;;;;;;;15.98;4.45;;;17.80;77.00;;;;;;5074249;28;20352;-41
2021/08/16 07:30:01;;;;;;;17.20;4.82;;;18.00;76.80;;;;;;5074759;28;20087;-38
2021/08/16 07:32:26;;;;;;;11.52;4.90;;;18.20;75.90;;;;;;5074727;28;20081;-38
2021/08/16 07:34:52;;;;;;;7.70;3.80;;;18.20;75.50;;;;;;5074811;28;20537;-37
2021/08/16 07:37:17;;;;;;;9.88;4.38;;;18.20;75.80;;;;;;5074566;28;20119;-47
2021/08/16 07:39:43;;;;;;;8.32;3.78;;;18.30;75.50;;;;;;5074848;28;20468;-49
2021/08/16 07:42:09;;;;;;;13.52;4.30;;;18.10;75.50;;;;;;5075144;28;20025;-48
2021/08/16 07:44:37;;;;;;;16.15;5.10;;;18.30;75.40;;;;;;5076253;28;20028;-47
2021/08/16 07:47:04;;;;;;;12.73;5.03;;;18.30;75.10;;;;;;5074937;28;20024;-49
2021/08/16 07:49:31;;;;;;;9.88;4.07;;;18.40;74.60;;;;;;5074493;28;20032;-47
2021/08/16 07:52:01;;;;;;;10.55;3.63;;;18.20;75.30;;;;;;5072977;28;20031;-47
2021/08/16 07:54:27;;;;;;;13.45;4.15;;;18.30;75.30;;;;;;5074607;28;20113;-51
2021/08/16 07:56:53;;;;;;;13.13;4.55;;;18.40;75.10;;;;;;5072331;28;20203;-47
2021/08/16 07:59:19;;;;;;;11.65;4.47;;;18.30;75.00;;;;;;5073127;28;20099;-47
2021/08/16 08:01:45;;;;;;;12.68;4.15;;;18.30;74.70;;;;;;5073712;28;20475;-47
2021/08/16 08:04:11;;;;;;;7.80;3.47;;;18.10;75.50;;;;;;5073303;28;20100;-47
2021/08/16 08:06:38;;;;;;;8.43;4.25;;;18.10;75.40;;;;;;5073656;28;20090;-47
2021/08/16 08:09:03;;;;;;;9.90;4.43;;;18.00;75.80;;;;;;5073496;28;20090;-48
2021/08/16 08:11:29;;;;;;;11.45;4.63;;;18.00;75.50;;;;;;5073241;28;20025;-45
2021/08/16 08:13:55;;;;;;;7.43;3.90;;;18.10;75.60;;;;;;5073189;28;20384;-46
2021/08/16 08:16:20;;;;;;;12.63;4.13;;;18.30;74.80;;;;;;5073384;28;20024;-47
2021/08/16 08:18:46;;;;;;;6.38;3.30;;;18.70;73.80;;;;;;5073616;28;20099;-49
2021/08/16 08:21:12;;;;;;;9.48;5.15;;;18.60;73.60;;;;;;5072989;28;20052;-47
2021/08/16 08:23:38;;;;;;;13.57;5.53;;;18.50;74.10;;;;;;5073274;28;20024;-47
2021/08/16 08:26:04;;;;;;;10.25;4.25;;;18.30;74.80;;;;;;5071483;28;20031;-49
2021/08/16 08:28:30;;;;;;;12.82;4.43;;;18.50;74.60;;;;;;5072642;28;20024;-44
2021/08/16 08:30:56;;;;;;;14.30;4.40;;;18.40;74.80;;;;;;5073102;28;20500;-47
2021/08/16 08:33:22;;;;;;;11.20;3.47;;;18.30;75.20;;;;;;5072830;28;20028;-50
2021/08/16 08:35:49;;;;;;;7.82;4.03;;;18.40;75.10;;;;;;5071605;28;20032;-48
2021/08/16 08:38:17;;;;;;;9.15;3.67;;;18.30;75.20;;;;;;5072674;28;20082;-46
2021/08/16 08:40:44;;;;;;;12.85;4.78;;;18.40;75.30;;;;;;5073074;28;20025;-50
2021/08/16 08:43:12;;;;;;;12.88;4.90;;;18.30;75.40;;;;;;5072636;28;20024;-48
2021/08/16 08:45:40;;;;;;;9.60;4.70;;;18.30;75.60;;;;;;5072623;28;20032;-46
2021/08/16 08:48:05;;;;;;;12.27;4.18;;;18.30;75.40;;;;;;5072717;28;20434;-48
2021/08/16 08:50:32;;;;;;;12.30;4.43;;;18.30;75.60;;;;;;5072600;28;20012;-48
2021/08/16 08:53:01;;;;;;;14.82;4.68;;;18.20;75.70;;;;;;5072626;28;20025;-48
2021/08/16 08:55:27;;;;;;;6.45;3.72;;;18.20;75.90;;;;;;5072610;28;20085;-47
2021/08/16 08:57:53;;;;;;;7.63;3.88;;;18.20;75.70;;;;;;5072652;28;20021;-48
2021/08/16 09:00:19;;;;;;;14.77;4.55;;;18.10;76.10;;;;;;5072944;28;20028;-46
2021/08/16 09:03:01;;;;;;;15.63;4.63;;;18.10;76.20;;;;;;5072466;28;20177;-46
2021/08/16 09:05:28;;;;;;;9.90;4.20;;;18.00;76.40;;;;;;5071674;28;20099;-47
2021/08/16 09:07:55;;;;;;;13.20;5.68;;;18.10;76.40;;;;;;5073044;28;20024;-46
2021/08/16 09:10:27;;;;;;;7.05;3.78;;;18.10;76.20;;;;;;5071174;28;20024;-46
2021/08/16 09:13:00;;;;;;;11.68;4.50;;;18.10;76.10;;;;;;5071690;28;20120;-46
2021/08/16 09:15:29;;;;;;;9.88;5.18;;;18.20;76.30;;;;;;5072577;28;20044;-49
2021/08/16 09:17:55;;;;;;;11.20;5.05;;;18.10;76.30;;;;;;5072723;28;20040;-49
2021/08/16 09:20:29;;;;;;;12.13;5.20;;;18.10;76.40;;;;;;5072632;28;20028;-46
2021/08/16 09:22:57;;;;;;;10.93;4.95;;;18.10;77.60;;;;;;5072078;28;20048;-49
2021/08/16 09:25:24;;;;;;;13.07;4.70;;;18.00;78.50;;;;;;5072356;28;20103;-47
2021/08/16 09:27:50;;;;;;;14.32;5.88;;;17.80;79.80;;;;;;5072245;28;20075;-47
2021/08/16 09:30:16;;;;;;;14.18;5.80;;;17.70;81.60;;;;;;5072571;28;20060;-48
2021/08/16 09:32:43;;;;;;;12.15;6.53;;;17.60;82.40;;;;;;5072017;28;20017;-48
2021/08/16 09:35:14;;;;;;;17.42;6.72;;;17.60;82.60;;;;;;5072367;28;20484;-48
2021/08/16 09:37:41;;;;;;;10.52;5.78;;;17.50;83.80;;;;;;5073279;28;20028;-48
2021/08/16 09:40:17;;;;;;;15.52;7.30;;;17.30;84.80;;;;;;5076278;28;20078;-49
2021/08/16 09:42:47;;;;;;;20.10;8.23;;;17.10;86.10;;;;;;5076671;28;20107;-49
2021/08/16 09:45:28;;;;;;;19.75;9.20;;;16.80;87.40;;;;;;5076214;28;20021;-47
2021/08/16 09:47:56;;;;;;;14.80;8.90;;;16.80;88.40;;;;;;5076581;28;20023;-47
2021/08/16 09:50:22;;;;;;;16.45;9.25;;;16.70;88.40;;;;;;5076829;28;20021;-47
2021/08/16 09:52:48;;;;;;;18.73;9.15;;;16.80;89.30;;;;;;5075874;28;20028;-49
2021/08/16 09:55:14;;;;;;;15.18;9.52;;;16.70;89.30;;;;;;5076023;28;20028;-49
2021/08/16 09:57:40;;;;;;;13.80;7.80;;;16.80;89.10;;;;;;5076501;28;20028;-48
2021/08/16 10:00:07;;;;;;;18.98;8.50;;;16.80;89.10;;;;;;5075895;28;20126;-47
2021/08/16 10:02:36;;;;;;;20.38;8.80;;;16.80;89.20;;;;;;5075840;28;20473;-48
2021/08/16 10:05:01;;;;;;;14.15;9.18;;;16.80;89.20;;;;;;5076243;28;20024;-49
2021/08/16 10:07:31;;;;;;;21.15;10.05;;;16.70;89.90;;;;;;5076508;28;20028;-50
2021/08/16 10:10:02;;;;;;;19.80;9.93;;;16.50;90.40;;;;;;5076298;28;20024;-47
2021/08/16 10:12:30;;;;;;;17.67;10.23;;;16.50;91.00;;;;;;5076173;28;20036;-48
2021/08/16 10:14:58;;;;;;;20.60;11.02;;;16.50;91.10;;;;;;5074297;28;20179;-47
2021/08/16 10:17:33;;;;;;;20.85;9.82;;;16.50;91.20;;;;;;5076367;28;20028;-50
2021/08/16 10:20:00;;;;;;;13.15;9.82;;;16.50;91.50;;;;;;5076429;28;20384;-49
2021/08/16 10:22:26;;;;;;;16.27;11.57;;;16.50;91.80;;;;;;5076030;28;20048;-48
2021/08/16 10:24:52;;;;;;;14.95;9.52;;;16.60;91.60;;;;;;5076213;28;20024;-49
2021/08/16 10:27:28;;;;;;;11.80;8.15;;;16.50;91.80;;;;;;5075849;28;20371;-49
2021/08/16 10:30:11;;;;;;;10.63;7.88;;;16.50;91.60;;;;;;5075410;28;20115;-48
2021/08/16 10:32:36;;;;;;;10.18;5.43;;;16.60;91.40;;;;;;5075557;28;20024;-48
2021/08/16 10:35:37;;;;;;;7.07;5.35;;;16.80;90.30;;;;;;5075376;28;20043;-48
2021/08/16 10:38:06;;;;;;;6.25;5.10;;;16.80;89.20;;;;;;5075874;28;20029;-49
2021/08/16 10:40:42;;;;;;;5.93;5.10;;;16.90;88.60;;;;;;5075864;28;20119;-51
2021/08/16 10:43:09;;;;;;;7.15;4.03;;;16.80;89.20;;;;;;5075506;28;20055;-49
2021/08/16 10:45:44;;;;;;;4.00;3.20;;;16.70;89.20;;;;;;5075642;28;20017;-50
2021/08/16 10:48:10;;;;;;;6.13;3.53;;;16.40;88.00;;;;;;5075031;28;20016;-51
2021/08/16 10:50:36;;;;;;;3.53;2.53;;;16.20;86.60;;;;;;5074571;28;20033;-48
2021/08/16 10:53:08;;;;;;;5.88;2.80;;;16.20;85.80;;;;;;5073856;28;20021;-49
2021/08/16 10:55:36;;;;;;;4.78;2.72;;;16.00;84.10;;;;;;5074473;28;20032;-51
2021/08/16 10:58:05;;;;;;;4.03;2.70;;;15.80;82.90;;;;;;5074610;28;20039;-53
2021/08/16 11:00:30;;;;;;;5.78;2.85;;;15.90;82.90;;;;;;5075390;28;20028;-53
2021/08/16 11:02:56;;;;;;;11.63;3.00;;;16.00;82.50;;;;;;5075143;28;20033;-51
2021/08/16 11:05:33;;;;;;;10.75;3.13;;;16.10;81.60;;;;;;5074826;28;20054;-53
2021/08/16 11:08:03;;;;;;;5.95;3.20;;;16.10;83.00;;;;;;5075276;28;20021;-52
2021/08/16 11:10:41;;;;;;;7.53;4.78;;;16.10;80.60;;;;;;5075372;28;20055;-52
2021/08/16 11:13:13;;;;;;;7.07;3.38;;;16.30;81.70;;;;;;5074390;28;20029;-53
2021/08/16 11:15:39;;;;;;;10.10;4.68;;;16.30;82.00;;;;;;5074186;28;20028;-49
2021/08/16 11:18:22;;;;;;;8.73;4.63;;;16.30;81.90;;;;;;5074347;28;20021;-49
2021/08/16 11:20:59;;;;;;;11.68;3.47;;;16.40;82.00;;;;;;5074494;28;20095;-48
2021/08/16 11:23:25;;;;;;;9.05;3.25;;;16.30;81.80;;;;;;5074141;28;20024;-51
2021/08/16 11:25:56;;;;;;;6.30;3.83;;;16.30;82.60;;;;;;5073867;28;20186;-48
2021/08/16 11:28:25;;;;;;;6.10;3.03;;;16.30;82.80;;;;;;5074417;28;20503;-50
2021/08/16 11:31:03;;;;;;;13.52;4.55;;;16.30;83.20;;;;;;5074550;28;20606;-48
2021/08/16 11:33:29;;;;;;;5.25;4.07;;;16.20;83.60;;;;;;5074232;28;20147;-48
2021/08/16 11:36:05;;;;;;;10.30;4.40;;;16.20;83.30;;;;;;5074620;28;20036;-48
2021/08/16 11:38:31;;;;;;;11.55;3.83;;;16.10;84.00;;;;;;5074088;28;20025;-48
2021/08/16 11:41:15;;;;;;;7.05;4.22;;;16.00;84.00;;;;;;5074046;28;20029;-50
2021/08/16 11:43:41;;;;;;;11.18;4.18;;;16.00;85.10;;;;;;5073989;28;20033;-49
2021/08/16 11:46:17;;;;;;;9.88;3.88;;;16.10;84.50;;;;;;5073623;28;20027;-47
2021/08/16 11:48:53;;;;;;;10.77;5.50;;;16.20;84.70;;;;;;5074245;28;20028;-47
2021/08/16 11:51:20;;;;;;;10.57;3.88;;;16.30;84.90;;;;;;5074227;28;20029;-48
2021/08/16 11:53:47;;;;;;;10.13;4.15;;;16.20;85.00;;;;;;5072388;28;20511;-46
2021/08/16 11:56:13;;;;;;;9.20;4.63;;;16.30;85.20;;;;;;5074666;28;20170;-48
2021/08/16 11:58:42;;;;;;;8.70;3.95;;;16.30;85.60;;;;;;5073029;28;20029;-51
2021/08/16 12:01:11;;;;;;;6.35;4.22;;;16.20;85.40;;;;;;5073620;28;20431;-47
2021/08/16 12:03:37;;;;;;;6.85;4.10;;;16.30;85.00;;;;;;5072810;28;20035;-47
2021/08/16 12:06:05;;;;;;;9.73;4.57;;;16.40;84.80;;;;;;5073431;28;20025;-48
2021/08/16 12:08:34;;;;;;;8.20;4.03;;;16.60;83.40;;;;;;5073755;28;20310;-47
2021/08/16 12:11:00;;;;;;;8.77;4.80;;;16.80;83.30;;;;;;5073865;28;20029;-49
2021/08/16 12:13:26;;;;;;;7.88;3.70;;;16.80;82.60;;;;;;5073190;28;20032;-49
2021/08/16 12:15:52;;;;;;;8.75;4.10;;;16.60;82.70;;;;;;5073382;28;20028;-49
2021/08/16 12:18:29;;;;;;;18.23;4.95;;;16.60;83.00;;;;;;5073717;28;20031;-49
2021/08/16 12:20:56;;;;;;;6.65;4.38;;;16.50;82.40;;;;;;5071832;28;20040;-47
2021/08/16 12:23:27;;;;;;;14.88;5.35;;;16.60;82.70;;;;;;5073240;28;20039;-47
2021/08/16 12:25:53;;;;;;;;;;;16.70;82.20;;;;;;5072937;28;20024;-47
2021/08/16 12:28:19;;;;;;;9.50;4.53;;;17.00;80.80;;;;;;5071340;28;19940;-46
2021/08/16 12:30:44;;;;;;;13.50;5.80;;;17.30;80.50;;;;;;5071304;28;20487;-50
2021/08/16 12:33:16;;;;;;;10.63;4.88;;;17.30;79.50;;;;;;5072565;28;20035;-47
2021/08/16 12:35:53;;;;;;;12.30;5.43;;;17.00;79.40;;;;;;5072805;28;20113;-46
2021/08/16 12:38:26;;;;;;;14.85;4.95;;;17.30;80.00;;;;;;5072512;28;20024;-48
2021/08/16 12:41:06;;;;;;;15.85;6.10;;;17.30;79.50;;;;;;5072927;28;20384;-49